createdAt,value
2023-06-06T00:08:30.728Z,40.25
2023-06-06T00:18:32.027Z,40.40
2023-06-06T00:28:33.299Z,40.65
2023-06-06T00:38:34.630Z,40.44
2023-06-06T00:48:35.951Z,39.86
2023-06-06T00:58:38.031Z,40.03
2023-06-06T01:08:39.486Z,39.86
2023-06-06T01:18:40.764Z,39.82
2023-06-06T01:28:42.031Z,39.70
2023-06-06T01:49:12.006Z,39.68
2023-06-06T01:59:13.322Z,39.50
2023-06-06T02:09:14.574Z,39.07
2023-06-06T02:19:15.866Z,39.16
2023-06-06T02:29:21.072Z,39.57
2023-06-06T02:39:22.375Z,38.44
2023-06-06T03:10:22.382Z,38.68
2023-06-06T03:20:23.644Z,38.34
2023-06-06T03:30:24.942Z,38.24
2023-06-06T03:40:26.223Z,38.46
2023-06-06T03:50:27.579Z,38.79
2023-06-06T04:00:28.888Z,41.76
2023-06-06T04:10:30.156Z,42.03
2023-06-06T04:20:31.403Z,41.73
2023-06-06T04:30:32.696Z,43.16
2023-06-06T04:40:46.931Z,42.06
2023-06-06T04:50:55.226Z,41.59
2023-06-06T05:00:56.505Z,41.20
2023-06-06T05:10:57.864Z,41.45
2023-06-06T05:20:59.142Z,41.92
2023-06-06T05:31:00.422Z,42.08
2023-06-06T05:41:01.733Z,41.89
2023-06-06T05:51:04.308Z,41.79
2023-06-06T06:01:05.564Z,40.87
2023-06-06T06:11:06.853Z,40.69
2023-06-06T06:21:08.181Z,41.08
2023-06-06T06:31:11.849Z,40.82
2023-06-06T06:41:13.584Z,40.49
2023-06-06T06:51:15.061Z,41.60
2023-06-06T07:01:16.340Z,41.47
2023-06-06T07:11:17.601Z,41.61
2023-06-06T07:21:18.859Z,41.69
2023-06-06T07:31:20.190Z,42.51
2023-06-06T07:41:21.505Z,42.13
2023-06-06T07:51:22.845Z,42.75
2023-06-06T08:01:24.237Z,43.19
2023-06-06T08:11:25.497Z,42.83
2023-06-06T08:21:26.783Z,42.84
2023-06-06T08:31:28.135Z,42.55
2023-06-06T08:41:29.459Z,43.85
2023-06-06T08:51:30.736Z,42.67
2023-06-06T09:01:32.101Z,42.58
2023-06-06T09:11:33.379Z,43.66
2023-06-06T09:21:34.689Z,43.41
2023-06-06T09:31:36.055Z,43.26
2023-06-06T09:41:37.392Z,43.98
2023-06-06T09:51:38.684Z,43.46
2023-06-06T10:01:40.055Z,44.67
2023-06-06T10:11:41.367Z,44.34
2023-06-06T10:21:43.303Z,44.63
2023-06-06T10:31:44.675Z,44.21
2023-06-06T10:41:46.017Z,44.27
2023-06-06T10:51:49.564Z,44.11
2023-06-06T11:01:51.644Z,43.42
2023-06-06T11:11:53.019Z,43.87
2023-06-06T11:21:54.339Z,44.58
2023-06-06T11:31:55.615Z,43.64
2023-06-06T11:41:56.933Z,44.44
2023-06-06T11:51:58.197Z,43.93
2023-06-06T12:01:59.477Z,44.11
2023-06-06T12:12:00.748Z,44.69
2023-06-06T12:22:02.091Z,45.16
2023-06-06T12:32:06.242Z,44.51
2023-06-06T12:42:07.529Z,45.03
2023-06-06T12:52:08.807Z,44.92
2023-06-06T13:02:10.392Z,44.72
2023-06-06T13:12:11.846Z,44.50
2023-06-06T13:22:13.111Z,43.92
2023-06-06T13:32:14.475Z,43.59
2023-06-06T13:42:15.781Z,43.23
2023-06-06T13:52:17.037Z,43.16
2023-06-06T14:02:19.335Z,42.71
2023-06-06T14:12:20.661Z,42.27
2023-06-06T14:22:22.058Z,41.67
2023-06-06T14:32:24.269Z,41.42
2023-06-06T14:42:25.579Z,41.14
2023-06-06T14:52:26.865Z,40.68
2023-06-06T15:02:28.185Z,40.48
2023-06-06T15:12:29.718Z,40.44
2023-06-06T15:22:30.978Z,40.00
2023-06-06T15:32:32.302Z,39.67
2023-06-06T15:42:33.614Z,39.32
2023-06-06T15:52:34.901Z,39.28
2023-06-06T16:02:36.312Z,39.13
2023-06-06T16:12:37.628Z,38.87
2023-06-06T16:22:38.930Z,38.36
2023-06-06T16:32:40.275Z,38.38
2023-06-06T16:42:41.555Z,38.58
2023-06-06T16:52:42.831Z,38.61
2023-06-06T17:02:44.156Z,39.20
2023-06-06T17:12:45.478Z,39.47
2023-06-06T17:22:46.730Z,40.25
2023-06-06T17:32:48.142Z,40.45
2023-06-06T17:42:49.484Z,40.78
2023-06-06T17:52:51.097Z,41.42
2023-06-06T18:02:52.566Z,41.46
2023-06-06T18:12:53.938Z,41.42
2023-06-06T18:22:55.216Z,41.80
2023-06-06T18:32:56.513Z,42.19
2023-06-06T18:42:57.856Z,42.08
2023-06-06T18:52:59.145Z,42.06
2023-06-06T19:03:00.495Z,41.99
2023-06-06T19:13:01.840Z,42.12
2023-06-06T19:23:03.129Z,42.40
2023-06-06T19:33:04.499Z,42.25
2023-06-06T19:43:05.804Z,42.88
2023-06-06T19:53:07.080Z,42.51
2023-06-06T20:03:08.513Z,42.62
2023-06-06T20:13:09.842Z,43.03
2023-06-06T20:23:11.109Z,42.67
2023-06-06T20:33:12.381Z,43.19
2023-06-06T20:43:13.752Z,42.81
2023-06-06T20:53:15.101Z,42.37
2023-06-06T21:03:16.497Z,42.51
2023-06-06T21:13:17.913Z,42.15
2023-06-06T21:23:19.191Z,42.15
2023-06-06T21:33:20.537Z,42.46
2023-06-06T21:43:21.852Z,42.18
2023-06-06T21:53:23.155Z,42.12
2023-06-06T22:03:24.504Z,42.24
2023-06-06T22:13:25.845Z,41.83
2023-06-06T22:23:27.212Z,41.86
2023-06-06T22:33:28.529Z,41.68
2023-06-06T22:43:29.815Z,41.42
2023-06-06T22:53:31.096Z,41.29
2023-06-06T23:03:32.552Z,41.42
2023-06-06T23:13:34.012Z,41.33
2023-06-06T23:23:35.349Z,41.07
2023-06-06T23:33:36.615Z,41.28
2023-06-06T23:43:37.892Z,40.75
2023-06-06T23:53:39.195Z,40.91
